Time;durP1;ratioP1;P1;durP2;ratioP2;P2;SDS_P1;SDS_P2;PMS_P1;PMS_P2;Temp;Humidity;BMP_temperature;BMP_pressure;BME280_temperature;BME280_humidity;BME280_pressure;Samples;Min_cycle;Max_cycle;Signal;HPM_P1;HPM_P2
2023/08/09 00:01:28;;;;;;;3.78;0.70;;;11.20;99.90;;;;;;5054543;28;20128;-63
2023/08/09 00:03:54;;;;;;;2.88;0.60;;;11.20;99.90;;;;;;5054030;28;20045;-63
2023/08/09 00:06:19;;;;;;;10.27;0.90;;;11.20;99.90;;;;;;5053825;28;20181;-64
2023/08/09 00:08:45;;;;;;;7.95;0.52;;;11.10;99.90;;;;;;5055918;28;20033;-63
2023/08/09 00:11:12;;;;;;;5.90;0.73;;;11.20;99.90;;;;;;5051629;28;20734;-63
2023/08/09 00:13:38;;;;;;;5.07;0.95;;;11.20;99.90;;;;;;5038233;28;20044;-63
2023/08/09 00:16:05;;;;;;;5.07;0.60;;;11.20;99.90;;;;;;5054152;28;20056;-63
2023/08/09 00:18:31;;;;;;;7.15;0.40;;;11.20;99.90;;;;;;5052634;28;20355;-65
2023/08/09 00:20:56;;;;;;;4.80;0.65;;;11.20;99.90;;;;;;5038086;28;20037;-62
2023/08/09 00:23:22;;;;;;;6.07;0.63;;;11.20;99.90;;;;;;5049939;28;20049;-63
2023/08/09 00:25:48;;;;;;;5.82;0.60;;;11.10;99.90;;;;;;5055967;28;20542;-62
2023/08/09 00:28:13;;;;;;;5.13;0.60;;;11.10;99.90;;;;;;5057864;28;20403;-65
2023/08/09 00:30:39;;;;;;;4.60;0.63;;;11.10;99.90;;;;;;5041093;28;20068;-63
2023/08/09 00:33:04;;;;;;;5.32;0.70;;;11.20;99.90;;;;;;5051804;28;20396;-62
2023/08/09 00:35:31;;;;;;;6.43;1.00;;;11.10;99.90;;;;;;5036001;28;20045;-62
2023/08/09 00:37:57;;;;;;;6.88;0.60;;;11.00;99.90;;;;;;5041890;28;20047;-63
2023/08/09 00:40:22;;;;;;;6.93;0.75;;;11.00;99.90;;;;;;5052436;28;20040;-63
2023/08/09 00:42:48;;;;;;;6.40;0.90;;;10.90;99.90;;;;;;5051575;28;20036;-62
2023/08/09 00:45:14;;;;;;;8.15;0.63;;;10.90;99.90;;;;;;5053267;28;20037;-62
2023/08/09 00:47:59;;;;;;;5.65;0.90;;;10.90;99.90;;;;;;5054755;28;20500;-63
2023/08/09 00:50:25;;;;;;;9.00;1.10;;;10.80;99.90;;;;;;5052010;28;20045;-65
2023/08/09 00:52:50;;;;;;;5.38;0.85;;;10.80;99.90;;;;;;5052443;28;20098;-63
2023/08/09 00:55:16;;;;;;;4.82;0.60;;;10.70;99.90;;;;;;5048643;28;20036;-63
2023/08/09 00:57:42;;;;;;;6.35;0.70;;;10.70;99.90;;;;;;5053264;28;20040;-63
2023/08/09 01:00:09;;;;;;;4.43;0.60;;;10.70;99.90;;;;;;5036651;28;20075;-63
2023/08/09 01:02:35;;;;;;;5.50;0.68;;;10.70;99.90;;;;;;5054754;28;20044;-64
2023/08/09 01:05:04;;;;;;;9.27;1.08;;;10.70;99.90;;;;;;5042486;28;21240;-63
2023/08/09 01:07:42;;;;;;;8.75;0.68;;;10.70;99.90;;;;;;5035045;28;20399;-63
2023/08/09 01:10:18;;;;;;;8.40;0.88;;;10.70;99.90;;;;;;5037078;28;20486;-61
2023/08/09 01:12:57;;;;;;;5.82;0.82;;;10.70;99.90;;;;;;5044425;28;20578;-62
2023/08/09 01:15:24;;;;;;;4.15;0.60;;;10.70;99.90;;;;;;5051998;28;20060;-62
2023/08/09 01:17:52;;;;;;;5.65;0.90;;;10.60;99.90;;;;;;5048841;28;20040;-62
2023/08/09 01:20:20;;;;;;;6.03;0.90;;;10.60;99.90;;;;;;5053163;28;20123;-63
2023/08/09 01:23:09;;;;;;;4.38;0.80;;;10.60;99.90;;;;;;5049742;28;20033;-63
2023/08/09 01:25:35;;;;;;;7.38;0.80;;;10.60;99.90;;;;;;5050353;28;20048;-62
2023/08/09 01:28:03;;;;;;;4.00;0.60;;;10.50;99.90;;;;;;5049473;28;20089;-62
2023/08/09 01:30:30;;;;;;;5.20;0.85;;;10.50;99.90;;;;;;5052250;28;20614;-63
2023/08/09 01:32:55;;;;;;;7.97;0.60;;;10.50;99.90;;;;;;5044506;28;20045;-62
2023/08/09 01:35:22;;;;;;;7.18;0.75;;;10.50;99.90;;;;;;5050665;28;20056;-62
2023/08/09 01:37:52;;;;;;;7.38;0.90;;;10.50;99.90;;;;;;5031352;28;20039;-62
2023/08/09 01:40:21;;;;;;;7.05;1.02;;;10.50;99.90;;;;;;5032490;28;20052;-62
2023/08/09 01:42:47;;;;;;;4.32;0.80;;;10.40;99.90;;;;;;5035601;28;20052;-62
2023/08/09 01:45:13;;;;;;;10.00;0.90;;;10.40;99.90;;;;;;5035648;28;20090;-63
2023/08/09 01:47:41;;;;;;;6.45;0.88;;;10.40;99.90;;;;;;5054915;28;20033;-62
2023/08/09 01:50:20;;;;;;;6.07;0.80;;;10.40;99.90;;;;;;5051568;28;20032;-63
2023/08/09 01:52:46;;;;;;;2.83;0.70;;;10.50;99.90;;;;;;5050339;28;20041;-62
2023/08/09 01:55:17;;;;;;;4.07;0.70;;;10.50;99.90;;;;;;5052195;28;20105;-62
2023/08/09 01:57:47;;;;;;;4.50;1.02;;;10.50;99.90;;;;;;5051369;28;20044;-65
2023/08/09 02:00:16;;;;;;;8.65;0.68;;;10.40;99.90;;;;;;5053418;28;20391;-62
2023/08/09 02:02:42;;;;;;;5.50;0.68;;;10.50;99.90;;;;;;5035669;28;20475;-62
2023/08/09 02:05:09;;;;;;;5.30;0.60;;;10.50;99.90;;;;;;5027564;28;20266;-62
2023/08/09 02:07:34;;;;;;;8.48;1.10;;;10.50;99.90;;;;;;5048569;28;20043;-63
2023/08/09 02:10:00;;;;;;;8.23;0.80;;;10.50;99.90;;;;;;5053170;28;20127;-62
2023/08/09 02:12:25;;;;;;;6.82;1.13;;;10.60;99.90;;;;;;5049373;28;20037;-64
2023/08/09 02:14:51;;;;;;;7.85;0.80;;;10.70;99.90;;;;;;5049638;28;20053;-64
2023/08/09 02:17:17;;;;;;;7.28;0.52;;;10.60;99.90;;;;;;5051657;28;20132;-64
2023/08/09 02:19:42;;;;;;;5.75;0.43;;;10.60;99.90;;;;;;5050891;28;20033;-63
2023/08/09 02:22:10;;;;;;;5.13;0.60;;;10.60;99.90;;;;;;5048606;28;20446;-63
2023/08/09 02:24:36;;;;;;;5.80;0.60;;;10.60;99.90;;;;;;5050832;28;20406;-63
2023/08/09 02:27:01;;;;;;;7.35;0.63;;;10.60;99.90;;;;;;5037494;28;20045;-64
2023/08/09 02:29:27;;;;;;;5.75;0.80;;;10.60;99.90;;;;;;5050498;28;20418;-63
2023/08/09 02:31:53;;;;;;;4.22;0.70;;;10.60;99.90;;;;;;5053292;28;20585;-63
2023/08/09 02:34:19;;;;;;;2.90;0.43;;;10.50;99.90;;;;;;5051459;28;20049;-63
2023/08/09 02:40:10;;;;;;;7.13;0.57;;;10.50;99.90;;;;;;5051027;28;20049;-63
2023/08/09 02:42:37;;;;;;;5.13;0.60;;;10.40;99.90;;;;;;5047133;28;20037;-63
2023/08/09 02:45:03;;;;;;;3.95;0.50;;;10.50;99.90;;;;;;5051662;28;20477;-64
2023/08/09 02:47:29;;;;;;;6.35;0.70;;;10.60;99.90;;;;;;5038174;28;20584;-63
2023/08/09 02:49:55;;;;;;;8.52;0.70;;;10.60;99.90;;;;;;5037785;28;20041;-63
2023/08/09 02:52:20;;;;;;;7.32;0.70;;;10.50;99.90;;;;;;5069262;28;20098;-63
2023/08/09 02:54:47;;;;;;;6.88;0.77;;;10.50;99.90;;;;;;5053571;28;20040;-63
2023/08/09 02:57:13;;;;;;;7.65;0.55;;;10.50;99.90;;;;;;5053019;28;20071;-64
2023/08/09 02:59:39;;;;;;;5.97;0.70;;;10.60;99.90;;;;;;5056250;28;20048;-63
2023/08/09 03:02:05;;;;;;;5.53;0.60;;;10.50;99.90;;;;;;5053861;28;20525;-63
2023/08/09 03:04:32;;;;;;;5.97;0.93;;;10.40;99.90;;;;;;5053467;28;20041;-63
2023/08/09 03:06:58;;;;;;;6.45;0.57;;;10.40;99.90;;;;;;5057496;28;20113;-63
2023/08/09 03:09:23;;;;;;;7.80;0.75;;;10.30;99.90;;;;;;5036946;28;20049;-63
2023/08/09 03:11:49;;;;;;;5.85;0.70;;;10.20;99.90;;;;;;5053708;28;20125;-64
2023/08/09 03:14:15;;;;;;;4.20;0.70;;;10.10;99.90;;;;;;5051924;28;20137;-63
2023/08/09 03:16:41;;;;;;;4.97;0.63;;;10.00;99.90;;;;;;5054832;28;20178;-63
2023/08/09 03:19:08;;;;;;;4.88;0.57;;;9.90;99.90;;;;;;5036037;28;20067;-62
2023/08/09 03:21:34;;;;;;;5.95;1.00;;;9.90;99.90;;;;;;5052351;28;20044;-62
2023/08/09 03:24:00;;;;;;;6.07;0.95;;;9.80;99.90;;;;;;5057792;28;20131;-63
2023/08/09 03:26:26;;;;;;;5.18;1.00;;;9.80;99.90;;;;;;5052369;28;20530;-62
2023/08/09 03:28:52;;;;;;;8.05;1.40;;;9.90;99.90;;;;;;5049285;28;20040;-63
2023/08/09 03:31:18;;;;;;;9.15;1.02;;;9.90;99.90;;;;;;5054249;28;20127;-62
2023/08/09 03:33:44;;;;;;;5.25;1.13;;;9.90;99.90;;;;;;5052968;28;20426;-62
2023/08/09 03:36:09;;;;;;;5.18;0.70;;;10.00;99.90;;;;;;5055846;28;20089;-63
2023/08/09 03:38:35;;;;;;;5.53;0.65;;;9.90;99.90;;;;;;5069054;28;20056;-63
2023/08/09 03:41:01;;;;;;;6.35;0.98;;;10.00;99.90;;;;;;5058394;28;20058;-62
2023/08/09 03:43:27;;;;;;;7.13;0.90;;;10.10;99.90;;;;;;5052755;28;20095;-63
2023/08/09 03:45:52;;;;;;;6.25;0.93;;;10.10;99.90;;;;;;5036295;28;20052;-63
2023/08/09 03:48:19;;;;;;;6.60;0.88;;;10.10;99.90;;;;;;5053358;28;20571;-64
2023/08/09 03:50:45;;;;;;;3.75;0.63;;;10.20;99.90;;;;;;5053167;28;20041;-61
2023/08/09 03:53:10;;;;;;;5.50;0.80;;;10.20;99.90;;;;;;5054970;28;20039;-62
2023/08/09 03:55:36;;;;;;;4.65;0.98;;;10.20;99.90;;;;;;5057061;28;20108;-62
2023/08/09 03:58:02;;;;;;;5.82;1.10;;;10.10;99.90;;;;;;5029445;28;20048;-63
2023/08/09 04:00:27;;;;;;;4.43;0.68;;;10.10;99.90;;;;;;5055983;28;20062;-63
2023/08/09 04:02:54;;;;;;;10.85;0.93;;;10.10;99.90;;;;;;5053009;28;20064;-63
2023/08/09 04:05:20;;;;;;;6.93;0.82;;;10.10;99.90;;;;;;5037976;28;20348;-63
2023/08/09 04:07:46;;;;;;;7.13;0.60;;;10.20;99.90;;;;;;5039687;28;20044;-62
2023/08/09 04:10:12;;;;;;;6.72;0.90;;;10.10;99.90;;;;;;5052936;28;20049;-61
2023/08/09 04:12:38;;;;;;;6.00;0.90;;;10.10;99.90;;;;;;5055541;28;20549;-62
2023/08/09 04:15:04;;;;;;;7.63;1.23;;;10.10;99.90;;;;;;5050531;28;20045;-62
2023/08/09 04:17:33;;;;;;;7.40;0.80;;;10.10;99.90;;;;;;5054522;28;20086;-62
2023/08/09 04:20:00;;;;;;;8.10;0.80;;;10.10;99.90;;;;;;5053253;28;20091;-63
2023/08/09 04:22:26;;;;;;;4.25;0.82;;;10.20;99.90;;;;;;5052327;28;20028;-65
2023/08/09 04:24:51;;;;;;;4.20;0.75;;;10.10;99.90;;;;;;5055542;28;20413;-63
2023/08/09 04:27:17;;;;;;;3.63;0.80;;;10.10;99.90;;;;;;5050950;28;20259;-62
2023/08/09 04:29:45;;;;;;;4.22;0.90;;;10.20;99.90;;;;;;5053947;28;20040;-64
2023/08/09 04:32:30;;;;;;;5.60;1.10;;;10.20;99.90;;;;;;5053941;28;20047;-62
2023/08/09 04:34:55;;;;;;;10.18;1.20;;;10.10;99.90;;;;;;5053522;28;20044;-62
2023/08/09 04:37:22;;;;;;;6.50;1.05;;;10.20;99.90;;;;;;5056598;28;20096;-63
2023/08/09 04:39:48;;;;;;;4.30;0.82;;;10.20;99.90;;;;;;5054384;28;20044;-62
2023/08/09 04:42:14;;;;;;;4.57;0.80;;;10.20;99.90;;;;;;5052027;28;20131;-62
2023/08/09 04:44:39;;;;;;;7.18;0.90;;;10.20;99.90;;;;;;5051025;28;20059;-62
2023/08/09 04:47:05;;;;;;;4.75;0.90;;;10.20;99.90;;;;;;5051884;28;20091;-63
2023/08/09 04:49:31;;;;;;;4.53;0.80;;;10.30;99.90;;;;;;5051450;28;20052;-62
2023/08/09 04:51:56;;;;;;;6.20;0.73;;;10.20;99.90;;;;;;5054670;28;20028;-63
2023/08/09 04:54:22;;;;;;;5.93;1.08;;;10.30;99.90;;;;;;5049816;28;20098;-63
2023/08/09 04:56:48;;;;;;;5.05;0.68;;;10.30;99.90;;;;;;5057718;28;20044;-63
2023/08/09 04:59:13;;;;;;;5.00;0.55;;;10.40;99.90;;;;;;5052455;28;20041;-65
2023/08/09 05:01:39;;;;;;;6.97;0.98;;;10.40;99.90;;;;;;5035574;28;20709;-63
2023/08/09 05:04:05;;;;;;;8.15;0.90;;;10.50;99.90;;;;;;5053890;28;20044;-64
2023/08/09 05:06:30;;;;;;;7.68;0.80;;;10.50;99.90;;;;;;5054703;28;20127;-64
2023/08/09 05:08:56;;;;;;;4.60;0.82;;;10.60;99.90;;;;;;5052650;28;20110;-63
2023/08/09 05:11:22;;;;;;;5.32;0.80;;;10.60;99.90;;;;;;5051753;28;20045;-64
2023/08/09 05:13:47;;;;;;;5.38;0.63;;;10.70;99.90;;;;;;5039142;28;20072;-63
2023/08/09 05:16:13;;;;;;;2.05;0.50;;;10.70;99.90;;;;;;5020678;28;20866;-64
2023/08/09 05:18:39;;;;;;;3.75;0.50;;;10.90;99.90;;;;;;5035719;28;20430;-64
2023/08/09 05:21:05;;;;;;;6.90;0.90;;;11.00;99.90;;;;;;5017263;28;20279;-63
2023/08/09 05:23:31;;;;;;;3.35;0.55;;;11.10;99.90;;;;;;5018991;28;20051;-64
2023/08/09 05:25:57;;;;;;;5.55;0.70;;;11.30;99.90;;;;;;5017327;28;20316;-64
2023/08/09 05:28:22;;;;;;;7.78;0.68;;;11.40;99.90;;;;;;5036261;28;20613;-63
2023/08/09 05:30:48;;;;;;;2.72;0.40;;;11.60;99.90;;;;;;5033762;28;20087;-63
2023/08/09 05:33:14;;;;;;;4.97;0.30;;;11.70;99.90;;;;;;5020697;28;20070;-65
2023/08/09 05:35:39;;;;;;;4.82;0.50;;;12.00;99.90;;;;;;5033564;28;20248;-63
2023/08/09 05:38:05;;;;;;;2.10;0.40;;;12.20;99.90;;;;;;5002321;28;20045;-63
2023/08/09 05:40:31;;;;;;;5.43;0.40;;;12.50;99.90;;;;;;5026491;28;20133;-63
2023/08/09 05:42:56;;;;;;;3.55;0.52;;;12.90;99.90;;;;;;5022587;28;20041;-64
2023/08/09 05:48:48;;;;;;;3.75;0.50;;;13.50;99.90;;;;;;5041115;28;20506;-64
2023/08/09 05:51:14;;;;;;;4.43;0.45;;;13.80;99.90;;;;;;5022213;28;20094;-63
2023/08/09 05:53:40;;;;;;;3.45;0.47;;;13.90;99.90;;;;;;5001258;28;20526;-64
2023/08/09 05:56:06;;;;;;;4.65;0.38;;;13.90;99.90;;;;;;5019798;28;20036;-64
2023/08/09 05:58:31;;;;;;;5.53;0.57;;;13.80;99.90;;;;;;5018297;28;20356;-64
2023/08/09 06:00:57;;;;;;;2.88;0.32;;;14.00;99.90;;;;;;5032841;28;20235;-64
2023/08/09 06:03:23;;;;;;;7.03;0.40;;;14.10;99.90;;;;;;5014303;28;20074;-63
2023/08/09 06:05:48;;;;;;;2.38;0.30;;;14.40;99.90;;;;;;5013491;28;20483;-63
2023/08/09 06:08:14;;;;;;;3.72;0.32;;;14.60;99.90;;;;;;5030432;28;20041;-63
2023/08/09 06:10:40;;;;;;;6.90;0.35;;;14.90;99.90;;;;;;5030696;28;20582;-64
2023/08/09 06:13:05;;;;;;;4.15;0.50;;;15.00;99.90;;;;;;5013629;28;20331;-64
2023/08/09 06:15:31;;;;;;;3.95;0.52;;;15.20;99.90;;;;;;5000679;28;20507;-63
2023/08/09 06:17:58;;;;;;;3.13;0.32;;;15.30;99.90;;;;;;5020190;28;20603;-63
2023/08/09 06:20:27;;;;;;;3.42;0.40;;;15.50;99.90;;;;;;5033794;28;20132;-63
2023/08/09 06:22:53;;;;;;;3.05;0.40;;;15.60;99.90;;;;;;5018031;28;20045;-63
2023/08/09 06:25:19;;;;;;;5.43;0.30;;;15.70;99.90;;;;;;5017709;28;20041;-64
2023/08/09 06:27:45;;;;;;;2.85;0.30;;;15.80;99.90;;;;;;5034378;28;20363;-65
2023/08/09 06:30:11;;;;;;;3.63;0.30;;;15.70;99.90;;;;;;5015659;28;20040;-63
2023/08/09 06:32:37;;;;;;;3.03;0.40;;;15.80;99.90;;;;;;5038435;28;20041;-63
2023/08/09 06:35:04;;;;;;;3.10;0.40;;;16.00;99.90;;;;;;5038658;28;20040;-64
2023/08/09 06:37:30;;;;;;;3.50;0.30;;;16.10;99.90;;;;;;5036869;28;20048;-63
2023/08/09 06:39:57;;;;;;;3.88;0.40;;;16.20;99.90;;;;;;5036699;28;20376;-64
2023/08/09 06:42:23;;;;;;;4.07;0.30;;;16.30;99.90;;;;;;5058312;28;20040;-65
2023/08/09 06:44:48;;;;;;;4.20;0.30;;;16.30;99.90;;;;;;5036468;28;20043;-63
2023/08/09 06:47:14;;;;;;;3.78;0.40;;;16.30;99.90;;;;;;5048761;28;20464;-61
2023/08/09 06:49:40;;;;;;;3.83;0.50;;;16.40;99.90;;;;;;5057721;28;20061;-61
2023/08/09 06:52:05;;;;;;;6.15;0.40;;;16.70;99.90;;;;;;5032426;28;20082;-62
2023/08/09 06:54:31;;;;;;;4.53;0.50;;;16.80;99.90;;;;;;5033827;28;20086;-63
2023/08/09 06:56:57;;;;;;;1.40;0.20;;;17.00;99.90;;;;;;5037866;28;20040;-63
2023/08/09 06:59:22;;;;;;;4.72;0.40;;;17.20;99.90;;;;;;5053445;28;20071;-63
2023/08/09 07:01:48;;;;;;;3.80;0.30;;;17.50;99.90;;;;;;5038755;28;20461;-63
2023/08/09 07:04:18;;;;;;;6.47;0.40;;;17.60;99.90;;;;;;5048764;28;20052;-63
2023/08/09 07:06:44;;;;;;;2.83;0.30;;;17.60;99.90;;;;;;5051574;28;20045;-62
2023/08/09 07:09:11;;;;;;;3.22;0.32;;;17.60;99.90;;;;;;5049968;28;20293;-62
2023/08/09 07:11:37;;;;;;;2.80;0.30;;;17.80;99.90;;;;;;5050094;28;20517;-63
2023/08/09 07:14:03;;;;;;;3.28;0.30;;;17.80;99.90;;;;;;5050458;28;20808;-62
2023/08/09 07:16:29;;;;;;;3.35;0.35;;;17.80;99.90;;;;;;5051236;28;20063;-62
2023/08/09 07:19:15;;;;;;;3.33;0.30;;;18.00;99.90;;;;;;5035637;28;20044;-64
2023/08/09 07:21:40;;;;;;;4.38;0.50;;;18.20;99.90;;;;;;5047475;28;20471;-64
2023/08/09 07:24:06;;;;;;;3.00;0.40;;;18.30;99.90;;;;;;5032747;28;20130;-63
2023/08/09 07:26:32;;;;;;;2.30;0.30;;;18.50;99.90;;;;;;5051246;28;20471;-65
2023/08/09 07:28:59;;;;;;;6.00;0.30;;;18.60;99.90;;;;;;5050848;28;20043;-62
2023/08/09 07:31:25;;;;;;;4.22;0.30;;;18.60;64.40;;;;;;5050358;28;20148;-64
2023/08/09 07:33:51;;;;;;;3.50;0.30;;;18.60;84.90;;;;;;5037237;28;20123;-63
2023/08/09 07:36:17;;;;;;;3.88;0.40;;;18.70;70.40;;;;;;5036130;28;20049;-63
2023/08/09 07:38:43;;;;;;;4.75;0.40;;;18.70;54.40;;;;;;5051097;28;20056;-62
2023/08/09 07:41:10;;;;;;;2.88;0.30;;;18.90;64.20;;;;;;5036963;28;20395;-64
2023/08/09 07:47:06;;;;;;;2.85;0.30;;;19.20;30.00;;;;;;5050278;28;20554;-63
2023/08/09 07:49:32;;;;;;;3.47;0.30;;;19.30;29.00;;;;;;5038840;28;20037;-64
2023/08/09 07:51:58;;;;;;;4.97;0.30;;;19.30;9.80;;;;;;5051689;28;20471;-63
2023/08/09 07:54:23;;;;;;;3.10;0.30;;;19.30;18.70;;;;;;5056213;28;20037;-63
2023/08/09 07:56:49;;;;;;;4.20;0.30;;;19.20;17.80;;;;;;5019334;28;20080;-63
2023/08/09 07:59:15;;;;;;;3.15;0.30;;;19.40;17.50;;;;;;5052271;28;20037;-62
2023/08/09 08:01:40;;;;;;;3.03;0.28;;;19.50;12.20;;;;;;5034084;28;20032;-64
2023/08/09 08:04:06;;;;;;;2.45;0.22;;;19.60;4.10;;;;;;5055111;28;20055;-63
2023/08/09 08:06:32;;;;;;;1.30;0.20;;;19.50;1.00;;;;;;5054294;28;20047;-64
2023/08/09 08:08:58;;;;;;;3.90;0.22;;;19.50;1.00;;;;;;5041981;28;20075;-64
2023/08/09 08:11:23;;;;;;;3.38;0.20;;;19.50;1.00;;;;;;5038061;28;20032;-65
2023/08/09 08:13:49;;;;;;;2.30;0.32;;;19.50;1.00;;;;;;5054668;28;20114;-64
2023/08/09 08:16:15;;;;;;;2.95;0.30;;;19.50;1.00;;;;;;5021203;28;20049;-66
2023/08/09 08:18:41;;;;;;;3.80;0.30;;;19.70;1.00;;;;;;5045795;28;20045;-64
2023/08/09 08:21:08;;;;;;;1.80;0.30;;;20.10;1.00;;;;;;5037218;28;20096;-64
2023/08/09 08:23:34;;;;;;;4.35;0.30;;;20.30;1.00;;;;;;5036982;28;20052;-63
2023/08/09 08:26:00;;;;;;;5.88;0.40;;;20.70;1.00;;;;;;5053246;28;20040;-63
2023/08/09 08:28:26;;;;;;;4.03;0.20;;;20.70;1.00;;;;;;5018146;28;20590;-63
2023/08/09 08:30:52;;;;;;;3.83;0.22;;;20.50;1.00;;;;;;5053310;28;20132;-63
2023/08/09 08:33:17;;;;;;;2.78;0.20;;;20.50;1.00;;;;;;5053713;28;20079;-65
2023/08/09 08:35:48;;;;;;;2.95;0.20;;;20.50;1.00;;;;;;5019106;28;20041;-62
2023/08/09 08:38:14;;;;;;;4.13;0.20;;;20.30;1.00;;;;;;5036799;28;20468;-62
2023/08/09 08:40:40;;;;;;;2.83;0.32;;;19.80;1.00;;;;;;5054914;28;20714;-62
2023/08/09 08:43:08;;;;;;;4.07;0.30;;;19.50;1.00;;;;;;5038268;28;20047;-64
2023/08/09 08:45:38;;;;;;;1.73;0.30;;;19.50;1.00;;;;;;5031230;28;20040;-62
2023/08/09 08:48:07;;;;;;;1.38;0.20;;;19.70;1.00;;;;;;5050470;28;20429;-64
2023/08/09 08:50:37;;;;;;;2.25;0.22;;;19.40;1.00;;;;;;5035672;28;20609;-63
2023/08/09 08:53:04;;;;;;;3.17;0.22;;;19.50;1.00;;;;;;5054157;28;20494;-64
2023/08/09 08:55:30;;;;;;;2.47;0.30;;;20.10;1.00;;;;;;5050738;28;20040;-64
2023/08/09 08:57:56;;;;;;;2.92;0.30;;;20.70;1.00;;;;;;5047310;28;20116;-67
2023/08/09 09:00:23;;;;;;;1.50;0.25;;;21.10;1.00;;;;;;5054830;28;20115;-64
2023/08/09 09:02:49;;;;;;;3.78;0.25;;;21.10;1.00;;;;;;5051436;28;20344;-64
2023/08/09 09:05:18;;;;;;;1.42;0.30;;;21.30;1.00;;;;;;5035586;28;20116;-63
2023/08/09 09:07:46;;;;;;;1.85;0.25;;;21.10;1.00;;;;;;5051591;28;20033;-64
2023/08/09 09:10:12;;;;;;;3.30;0.20;;;20.70;1.00;;;;;;5053843;28;20044;-62
2023/08/09 09:12:42;;;;;;;1.23;0.30;;;20.70;1.00;;;;;;5050703;28;20029;-63
2023/08/09 09:15:09;;;;;;;2.13;0.20;;;20.70;1.00;;;;;;5053059;28;20056;-65
2023/08/09 09:17:42;;;;;;;2.78;0.22;;;20.90;1.00;;;;;;5052361;28;20063;-63
2023/08/09 09:20:21;;;;;;;1.25;0.20;;;21.10;1.00;;;;;;5031649;28;20036;-62
2023/08/09 09:22:48;;;;;;;4.15;0.28;;;21.20;1.00;;;;;;5036900;28;20533;-63
2023/08/09 09:25:14;;;;;;;4.15;0.28;;;21.30;1.00;;;;;;5034356;28;20036;-63
2023/08/09 09:27:40;;;;;;;3.03;0.20;;;21.30;1.00;;;;;;5043781;28;20036;-63
2023/08/09 09:30:14;;;;;;;2.88;0.28;;;21.20;1.00;;;;;;5052608;28;20456;-64
2023/08/09 09:32:54;;;;;;;4.35;0.30;;;20.80;1.00;;;;;;5053702;28;20044;-63
2023/08/09 09:35:27;;;;;;;1.15;0.20;;;20.60;1.00;;;;;;5050423;28;20087;-65
2023/08/09 09:37:55;;;;;;;2.30;0.20;;;21.10;1.00;;;;;;5046731;28;20037;-64
2023/08/09 09:40:32;;;;;;;1.15;0.20;;;21.60;1.00;;;;;;5049319;28;20049;-64
2023/08/09 09:42:59;;;;;;;1.50;0.22;;;21.30;1.00;;;;;;5025875;28;20467;-63
2023/08/09 09:45:29;;;;;;;2.92;0.30;;;21.50;1.00;;;;;;5049464;28;20415;-64
2023/08/09 09:47:57;;;;;;;3.63;0.20;;;21.90;1.00;;;;;;5032219;28;20129;-63
2023/08/09 09:50:26;;;;;;;1.95;0.22;;;21.60;1.00;;;;;;5050870;28;20183;-63
2023/08/09 09:52:52;;;;;;;1.83;0.20;;;20.90;1.00;;;;;;5051050;28;20044;-62
2023/08/09 09:55:25;;;;;;;2.00;0.20;;;20.70;1.00;;;;;;5049633;28;20056;-62
2023/08/09 09:57:55;;;;;;;0.85;0.20;;;21.20;1.00;;;;;;5050077;28;20075;-63
2023/08/09 10:00:25;;;;;;;4.20;0.30;;;21.30;1.00;;;;;;5052514;28;20094;-62
2023/08/09 10:02:52;;;;;;;1.60;0.20;;;21.00;1.00;;;;;;5050779;28;20053;-62
2023/08/09 10:05:21;;;;;;;2.50;0.22;;;20.60;1.00;;;;;;5049722;28;20403;-62
2023/08/09 10:07:48;;;;;;;2.15;0.30;;;20.70;1.00;;;;;;5042483;28;20392;-62
2023/08/09 10:10:15;;;;;;;1.73;0.20;;;21.20;1.00;;;;;;5050111;28;20480;-62
2023/08/09 10:12:47;;;;;;;1.33;0.20;;;21.40;1.00;;;;;;5050389;28;20372;-63
2023/08/09 10:15:17;;;;;;;2.85;0.30;;;21.00;1.00;;;;;;5050309;28;20114;-62
2023/08/09 10:17:45;;;;;;;1.60;0.20;;;20.80;1.00;;;;;;5048890;28;20064;-63
2023/08/09 10:20:12;;;;;;;2.10;0.25;;;20.50;1.00;;;;;;5049073;28;20563;-62
2023/08/09 10:22:39;;;;;;;1.10;0.20;;;20.50;1.00;;;;;;5031717;28;20044;-64
2023/08/09 10:25:05;;;;;;;1.55;0.10;;;21.00;1.00;;;;;;5048799;28;20121;-62
2023/08/09 10:27:51;;;;;;;1.45;0.20;;;21.70;1.00;;;;;;5034674;28;20445;-62
2023/08/09 10:30:23;;;;;;;3.08;0.20;;;21.90;1.00;;;;;;5029088;28;20033;-63
2023/08/09 10:32:53;;;;;;;2.40;0.30;;;22.30;1.00;;;;;;5047961;28;20102;-63
2023/08/09 10:35:44;;;;;;;1.60;0.25;;;22.10;1.00;;;;;;5050265;28;20571;-63
2023/08/09 10:38:13;;;;;;;2.80;0.30;;;21.40;1.00;;;;;;5047915;28;20396;-63
2023/08/09 10:40:43;;;;;;;1.73;0.20;;;21.00;1.00;;;;;;5047156;28;20394;-62
2023/08/09 10:43:24;;;;;;;2.47;0.20;;;21.30;1.00;;;;;;5033274;28;20700;-64
2023/08/09 10:45:53;;;;;;;2.78;0.20;;;21.50;1.00;;;;;;5047568;28;20036;-63
2023/08/09 10:48:24;;;;;;;3.88;0.25;;;21.90;1.00;;;;;;5035278;28;20475;-63
2023/08/09 10:51:08;;;;;;;3.58;0.30;;;22.00;1.00;;;;;;5049424;28;20163;-64
2023/08/09 10:54:00;;;;;;;0.90;0.20;;;22.50;1.00;;;;;;5034597;28;20482;-63
2023/08/09 10:56:32;;;;;;;1.93;0.30;;;22.70;1.00;;;;;;5047882;28;20045;-63
2023/08/09 10:59:09;;;;;;;2.13;0.30;;;23.30;1.00;;;;;;5048172;28;20047;-63
2023/08/09 11:01:37;;;;;;;2.10;0.20;;;23.20;1.00;;;;;;5050587;28;20044;-64
2023/08/09 11:04:12;;;;;;;0.95;0.10;;;23.00;1.00;;;;;;5050590;28;20049;-64
2023/08/09 11:06:41;;;;;;;1.25;0.20;;;22.50;1.00;;;;;;5053539;28;20041;-63
2023/08/09 11:09:16;;;;;;;1.50;0.30;;;21.60;1.00;;;;;;5050402;28;20048;-64
2023/08/09 11:11:44;;;;;;;1.15;0.20;;;21.10;1.00;;;;;;5053522;28;20514;-64
2023/08/09 11:14:29;;;;;;;1.38;0.20;;;20.70;1.00;;;;;;5036885;28;20137;-63
2023/08/09 11:16:55;;;;;;;1.95;0.30;;;20.50;1.00;;;;;;5049130;28;20171;-62
2023/08/09 11:19:24;;;;;;;2.60;0.20;;;21.10;1.00;;;;;;5041415;28;20190;-64
2023/08/09 11:21:56;;;;;;;2.72;0.30;;;22.00;1.00;;;;;;5028215;28;20505;-63
2023/08/09 11:24:24;;;;;;;1.58;0.30;;;22.00;1.00;;;;;;5051363;28;20076;-63
2023/08/09 11:26:53;;;;;;;1.98;0.30;;;21.70;1.00;;;;;;5036320;28;20036;-63
2023/08/09 11:29:20;;;;;;;1.50;0.30;;;21.20;1.00;;;;;;5042090;28;20041;-63
2023/08/09 11:31:51;;;;;;;1.42;0.20;;;20.80;1.00;;;;;;5015093;28;20429;-64
2023/08/09 11:34:19;;;;;;;2.13;0.30;;;20.50;1.00;;;;;;5024409;28;20162;-63
2023/08/09 11:36:47;;;;;;;3.33;0.30;;;20.70;1.00;;;;;;5040152;28;20040;-65
2023/08/09 11:39:14;;;;;;;2.55;0.40;;;20.70;1.00;;;;;;5040092;28;20044;-64
2023/08/09 11:41:55;;;;;;;1.83;0.30;;;20.60;1.00;;;;;;5021508;28;20270;-63
2023/08/09 11:44:24;;;;;;;4.35;0.70;;;20.60;1.00;;;;;;5018947;28;20077;-64
2023/08/09 11:46:53;;;;;;;4.22;0.30;;;20.40;1.00;;;;;;5020943;28;20040;-63
2023/08/09 11:49:31;;;;;;;5.63;0.50;;;20.30;1.00;;;;;;5038501;28;20224;-62
2023/08/09 11:51:59;;;;;;;1.88;0.20;;;20.60;1.00;;;;;;5022516;28;20052;-63
2023/08/09 11:54:26;;;;;;;2.63;0.28;;;21.10;1.00;;;;;;5004283;28;20442;-63
2023/08/09 11:56:52;;;;;;;2.97;0.30;;;21.60;1.00;;;;;;5018016;28;20299;-63
2023/08/09 11:59:19;;;;;;;0.98;0.20;;;21.20;1.00;;;;;;5039425;28;20041;-63
2023/08/09 12:01:47;;;;;;;3.53;0.28;;;20.90;1.00;;;;;;5043950;28;20124;-65
2023/08/09 12:04:14;;;;;;;3.55;0.30;;;21.00;1.00;;;;;;5039244;28;20032;-64
2023/08/09 12:06:45;;;;;;;1.70;0.20;;;21.00;1.00;;;;;;5023077;28;20037;-63
2023/08/09 12:09:30;;;;;;;2.33;0.20;;;21.50;1.00;;;;;;5020539;28;20041;-64
2023/08/09 12:12:08;;;;;;;2.20;0.30;;;21.30;1.00;;;;;;5016491;28;20122;-62
2023/08/09 12:14:54;;;;;;;2.80;0.30;;;21.00;1.00;;;;;;5038063;28;20068;-63
2023/08/09 12:17:28;;;;;;;2.40;0.20;;;20.80;1.00;;;;;;5038890;28;20146;-63
2023/08/09 12:20:00;;;;;;;1.25;0.20;;;20.60;1.00;;;;;;5041703;28;20044;-63
2023/08/09 12:22:27;;;;;;;1.77;0.20;;;20.20;1.00;;;;;;5039294;28;20151;-64
2023/08/09 12:24:54;;;;;;;3.97;0.40;;;20.10;1.00;;;;;;5037308;28;20044;-63
2023/08/09 12:27:19;;;;;;;1.58;0.20;;;20.30;1.00;;;;;;5039183;28;20106;-63
2023/08/09 12:29:46;;;;;;;2.78;0.30;;;20.70;1.00;;;;;;5006164;28;20036;-63
2023/08/09 12:32:12;;;;;;;1.90;0.47;;;21.50;1.00;;;;;;5042313;28;20064;-62
2023/08/09 12:34:37;;;;;;;4.05;0.40;;;21.60;1.00;;;;;;5026103;28;20111;-63
2023/08/09 12:37:05;;;;;;;3.88;0.40;;;21.30;1.00;;;;;;5020397;28;20046;-62
2023/08/09 12:39:31;;;;;;;2.33;0.20;;;21.50;1.00;;;;;;5038591;28;20510;-62
2023/08/09 12:41:57;;;;;;;3.13;0.30;;;21.90;1.00;;;;;;5039021;28;20042;-63
2023/08/09 12:44:23;;;;;;;2.05;0.30;;;22.40;1.00;;;;;;5038349;28;20048;-62
2023/08/09 12:46:49;;;;;;;5.03;0.40;;;22.30;1.00;;;;;;5047179;28;20037;-63
2023/08/09 12:49:15;;;;;;;3.00;0.40;;;22.30;1.00;;;;;;5037572;28;20095;-62
2023/08/09 12:51:40;;;;;;;4.30;0.30;;;21.90;1.00;;;;;;5020163;28;20033;-63
2023/08/09 12:54:08;;;;;;;4.90;0.47;;;22.50;1.00;;;;;;5035970;28;20166;-63
2023/08/09 12:56:34;;;;;;;4.88;0.40;;;22.80;1.00;;;;;;5036579;28;20048;-63
2023/08/09 12:59:00;;;;;;;4.93;0.47;;;22.60;1.00;;;;;;5039008;28;20116;-63
2023/08/09 13:01:25;;;;;;;5.03;0.40;;;22.70;1.00;;;;;;5036653;28;20083;-64
2023/08/09 13:03:51;;;;;;;6.53;0.43;;;23.10;1.00;;;;;;5039176;28;20045;-63